createdAt,value
2017-03-24T17:08:14.089Z,1023.91
2017-03-24T17:08:54.752Z,1023.92
2017-03-24T17:09:35.394Z,1023.92
2017-03-24T17:10:16.057Z,1023.89
2017-03-24T17:10:56.699Z,1023.93
2017-03-24T17:11:37.360Z,1023.9
2017-03-24T17:12:18.014Z,1023.84
2017-03-24T17:12:58.669Z,1023.82
2017-03-24T17:13:39.219Z,1023.77
2017-03-24T17:14:19.868Z,1023.73
2017-03-24T17:15:00.517Z,1023.77
2017-03-24T17:15:41.199Z,1023.72
2017-03-24T17:16:21.829Z,1023.68
2017-03-24T17:17:02.486Z,1023.73
2017-03-24T17:17:43.139Z,1023.73
2017-03-24T17:18:23.787Z,1023.73
2017-03-24T17:19:04.433Z,1023.76
2017-03-24T17:19:45.091Z,1023.77
2017-03-24T17:20:25.668Z,1023.8
2017-03-24T17:21:06.241Z,1023.78
2017-03-24T17:21:46.927Z,1023.79
2017-03-24T17:22:27.486Z,1023.79
2017-03-24T17:23:08.053Z,1023.78
2017-03-24T17:23:48.659Z,1023.81
2017-03-24T17:24:29.257Z,1023.77
2017-03-24T17:25:09.826Z,1023.76
2017-03-24T17:25:50.460Z,1023.76
2017-03-24T17:26:31.119Z,1023.79
2017-03-24T17:27:11.764Z,1023.79
2017-03-24T17:27:52.483Z,1023.8
2017-03-24T17:28:32.961Z,1023.84
2017-03-24T17:29:13.544Z,1023.87
2017-03-24T17:29:54.269Z,1023.86
2017-03-24T17:30:34.855Z,1023.92
2017-03-24T17:31:16.557Z,1023.89
2017-03-24T17:31:57.154Z,1023.9
2017-03-24T17:32:37.722Z,1023.95
2017-03-24T17:33:19.338Z,1023.9
2017-03-24T17:34:04.743Z,1023.91
2017-03-24T17:34:45.333Z,1023.92
2017-03-24T17:35:26.020Z,1023.92
2017-03-24T17:36:06.739Z,1023.9
2017-03-24T17:36:47.407Z,1023.9
2017-03-24T17:37:28.081Z,1023.9
2017-03-24T17:38:09.736Z,1023.91
2017-03-24T17:38:50.395Z,1023.94
2017-03-24T17:39:31.046Z,1023.95
2017-03-24T17:40:11.698Z,1023.97
2017-03-24T17:40:52.293Z,1023.97
2017-03-24T17:41:32.950Z,1023.95
2017-03-24T17:42:13.524Z,1023.99
2017-03-24T17:42:54.214Z,1024
2017-03-24T17:43:34.803Z,1024.02
2017-03-24T17:44:15.413Z,1024.01
2017-03-24T17:44:55.962Z,1024.01
2017-03-24T17:45:36.563Z,1024.04
2017-03-24T17:46:17.170Z,1024.09
2017-03-24T17:46:57.817Z,1024.09
2017-03-24T17:47:38.377Z,1024.05
2017-03-24T17:48:18.968Z,1024.11
2017-03-24T17:48:59.580Z,1024.15
2017-03-24T17:49:40.244Z,1024.11
2017-03-24T17:50:20.805Z,1024.11
2017-03-24T17:51:01.498Z,1024.18
2017-03-24T17:51:42.136Z,1024.11
2017-03-24T17:52:22.780Z,1024.18
2017-03-24T17:53:03.443Z,1024.23
2017-03-24T17:53:44.112Z,1024.22
2017-03-24T17:54:24.763Z,1024.19
2017-03-24T17:55:06.439Z,1024.24
2017-03-24T17:55:47.025Z,1024.25
2017-03-24T17:56:27.594Z,1024.18
2017-03-24T17:57:08.230Z,1024.24
2017-03-24T17:57:48.883Z,1024.28
2017-03-24T17:58:29.451Z,1024.26
2017-03-24T17:59:10.073Z,1024.35
2017-03-24T17:59:50.736Z,1024.31
2017-03-24T18:00:31.325Z,1024.34
2017-03-24T18:01:11.940Z,1024.37
2017-03-24T18:01:52.596Z,1024.34
2017-03-24T18:02:33.169Z,1024.33
2017-03-24T18:03:13.814Z,1024.36
2017-03-24T18:03:54.451Z,1024.33
2017-03-24T18:04:35.018Z,1024.33
2017-03-24T18:05:15.669Z,1024.39
2017-03-24T18:05:56.386Z,1024.37
2017-03-24T18:06:37.073Z,1024.35
2017-03-24T18:07:17.705Z,1024.39
2017-03-24T18:07:58.383Z,1024.44
2017-03-24T18:08:39.023Z,1024.38
2017-03-24T18:09:19.671Z,1024.38
2017-03-24T18:10:00.323Z,1024.41
2017-03-24T18:10:40.984Z,1024.36
2017-03-24T18:11:21.565Z,1024.34
2017-03-24T18:12:02.227Z,1024.37
2017-03-24T18:12:42.827Z,1024.41
2017-03-24T18:13:23.491Z,1024.38
2017-03-24T18:14:04.074Z,1024.43
2017-03-24T18:14:44.650Z,1024.41
2017-03-24T18:15:25.252Z,1024.43
2017-03-24T18:16:05.904Z,1024.43
2017-03-24T18:16:46.557Z,1024.44
2017-03-24T18:17:27.213Z,1024.45
2017-03-24T18:18:07.840Z,1024.45
2017-03-24T18:18:48.511Z,1024.42
2017-03-24T18:19:29.170Z,1024.45
2017-03-24T18:20:09.829Z,1024.44
2017-03-24T18:20:50.475Z,1024.46
2017-03-24T18:21:31.121Z,1024.46
2017-03-24T18:22:11.770Z,1024.45
2017-03-24T18:22:52.469Z,1024.47
2017-03-24T18:23:33.084Z,1024.5
2017-03-24T18:24:13.747Z,1024.5
2017-03-24T18:24:54.382Z,1024.53
2017-03-24T18:25:34.978Z,1024.49
2017-03-24T18:26:15.654Z,1024.53
2017-03-24T18:26:56.258Z,1024.54
2017-03-24T18:27:36.892Z,1024.56
2017-03-24T18:28:17.478Z,1024.57
2017-03-24T18:28:58.157Z,1024.57
2017-03-24T18:29:38.784Z,1024.57
2017-03-24T18:30:19.410Z,1024.59
2017-03-24T18:31:00.057Z,1024.62
2017-03-24T18:31:40.726Z,1024.64
2017-03-24T18:32:21.371Z,1024.62
2017-03-24T18:33:02.015Z,1024.6
2017-03-24T18:33:42.669Z,1024.61
2017-03-24T18:34:23.329Z,1024.62
2017-03-24T18:35:03.973Z,1024.65
2017-03-24T18:35:44.626Z,1024.64
2017-03-24T18:36:25.281Z,1024.63
2017-03-24T18:37:05.933Z,1024.62
2017-03-24T18:37:46.586Z,1024.65
2017-03-24T18:38:27.240Z,1024.64
2017-03-24T18:39:07.893Z,1024.64
2017-03-24T18:39:48.653Z,1024.66
2017-03-24T18:40:29.328Z,1024.66
2017-03-24T18:41:09.965Z,1024.7
2017-03-24T18:41:50.617Z,1024.69
2017-03-24T18:42:31.261Z,1024.71
2017-03-24T18:43:11.942Z,1024.7
2017-03-24T18:43:52.574Z,1024.74
2017-03-24T18:44:33.224Z,1024.71
2017-03-24T18:45:13.881Z,1024.74
2017-03-24T18:45:54.442Z,1024.77
2017-03-24T18:46:35.062Z,1024.74
2017-03-24T18:47:15.723Z,1024.78
2017-03-24T18:47:56.383Z,1024.78
2017-03-24T18:48:36.927Z,1024.83
2017-03-24T18:49:17.579Z,1024.83
2017-03-24T18:49:58.487Z,1024.87
2017-03-24T18:50:39.202Z,1024.86
2017-03-24T18:51:19.855Z,1024.85
2017-03-24T18:52:00.508Z,1024.84
2017-03-24T18:52:41.156Z,1024.83
2017-03-24T18:53:23.811Z,1024.8
2017-03-24T18:54:04.476Z,1024.82
2017-03-24T18:54:50.757Z,1024.84
2017-03-24T18:55:31.324Z,1024.86
2017-03-24T18:56:12.947Z,1024.86
2017-03-24T18:56:55.592Z,1024.88
2017-03-24T18:57:36.234Z,1024.92
2017-03-24T18:58:16.852Z,1024.87
2017-03-24T18:58:57.514Z,1024.85
2017-03-24T18:59:38.202Z,1024.92
2017-03-24T19:00:18.856Z,1024.88
2017-03-24T19:01:00.524Z,1024.85
2017-03-24T19:01:45.788Z,1024.9
2017-03-24T19:02:26.442Z,1024.9
2017-03-24T19:03:08.115Z,1024.89
2017-03-24T19:03:48.766Z,1024.9
2017-03-24T19:04:29.419Z,1024.89
2017-03-24T19:05:10.077Z,1024.92
2017-03-24T19:05:50.638Z,1024.92
2017-03-24T19:10:53.003Z,1024.98
2017-03-24T19:11:33.772Z,1024.95
2017-03-24T19:12:14.527Z,1024.98
2017-03-24T19:12:55.263Z,1024.98
2017-03-24T19:13:36.025Z,1025
2017-03-24T19:14:16.779Z,1025
2017-03-24T19:14:57.531Z,1024.99
2017-03-24T19:15:38.184Z,1025
2017-03-24T19:16:18.763Z,1025.02
2017-03-24T19:16:59.376Z,1025.01
2017-03-24T19:17:40.042Z,1025.03
2017-03-24T19:18:20.692Z,1025.04
2017-03-24T19:19:01.436Z,1024.99
2017-03-24T19:19:42.106Z,1024.99
2017-03-24T19:20:22.793Z,1025.03
2017-03-24T19:21:03.358Z,1025
2017-03-24T19:21:43.959Z,1025
2017-03-24T19:22:24.562Z,1025.04
2017-03-24T19:23:05.214Z,1025.02
2017-03-24T19:23:45.812Z,1025.03
2017-03-24T19:24:27.388Z,1025.04
2017-03-24T19:25:08.073Z,1025.02
2017-03-24T19:25:48.693Z,1025.03
2017-03-24T19:26:29.347Z,1025.05
2017-03-24T19:27:09.957Z,1025.03
2017-03-24T19:27:50.638Z,1025.07
2017-03-24T19:28:31.307Z,1025.1
2017-03-24T19:29:11.861Z,1025.07
2017-03-24T19:29:52.552Z,1025.13
2017-03-24T19:30:33.163Z,1025.12
2017-03-24T19:31:13.752Z,1025.17
2017-03-24T19:31:54.466Z,1025.17
2017-03-24T19:32:35.120Z,1025.2
2017-03-24T19:33:15.672Z,1025.2
2017-03-24T19:33:56.454Z,1025.19
2017-03-24T19:34:37.080Z,1025.2
2017-03-24T19:35:17.629Z,1025.18
2017-03-24T19:35:58.384Z,1025.2
2017-03-24T19:36:39.044Z,1025.21
2017-03-24T19:37:19.593Z,1025.22
2017-03-24T19:38:00.243Z,1025.21
2017-03-24T19:38:40.897Z,1025.18
2017-03-24T19:39:21.445Z,1025.17
2017-03-24T19:40:02.122Z,1025.19
2017-03-24T19:40:42.751Z,1025.21
2017-03-24T19:41:23.302Z,1025.18
2017-03-24T19:42:03.953Z,1025.18
2017-03-24T19:42:44.610Z,1025.18
2017-03-24T19:43:25.179Z,1025.22
2017-03-24T19:44:05.827Z,1025.21
2017-03-24T19:44:46.470Z,1025.24
2017-03-24T19:45:27.058Z,1025.23
2017-03-24T19:46:07.681Z,1025.24
2017-03-24T19:46:48.324Z,1025.28
2017-03-24T19:47:28.981Z,1025.29
2017-03-24T19:48:09.624Z,1025.31
2017-03-24T19:48:50.288Z,1025.29
2017-03-24T19:49:30.940Z,1025.26
2017-03-24T19:50:11.707Z,1025.32
2017-03-24T19:50:53.785Z,1025.34
2017-03-24T19:51:34.387Z,1025.35
2017-03-24T19:52:14.986Z,1025.29
2017-03-24T19:52:55.642Z,1025.34
2017-03-24T19:53:36.291Z,1025.36
2017-03-24T19:54:17.968Z,1025.36
2017-03-24T19:54:58.624Z,1025.29
2017-03-24T19:55:40.301Z,1025.32
2017-03-24T19:56:20.953Z,1025.32
2017-03-24T19:57:01.618Z,1025.32
2017-03-24T19:57:42.259Z,1025.31
2017-03-24T19:58:22.909Z,1025.35
2017-03-24T19:59:03.551Z,1025.35
2017-03-24T19:59:44.201Z,1025.36
2017-03-24T20:00:25.875Z,1025.41
2017-03-24T20:01:07.460Z,1025.4
2017-03-24T20:01:48.050Z,1025.4
2017-03-24T20:02:28.727Z,1025.42
2017-03-24T20:03:09.518Z,1025.39
2017-03-24T20:03:50.173Z,1025.42
2017-03-24T20:04:30.765Z,1025.45
2017-03-24T20:05:11.533Z,1025.47
2017-03-24T20:05:52.129Z,1025.43
2017-03-24T20:06:32.780Z,1025.46
2017-03-24T20:07:14.461Z,1025.47
2017-03-24T20:07:55.112Z,1025.46
2017-03-24T20:08:35.775Z,1025.45
2017-03-24T20:09:16.422Z,1025.44
2017-03-24T20:09:58.094Z,1025.43
2017-03-24T20:10:38.755Z,1025.44
2017-03-24T20:11:19.809Z,1025.47
2017-03-24T20:12:00.463Z,1025.46
2017-03-24T20:12:42.163Z,1025.46
2017-03-24T20:13:22.804Z,1025.49
2017-03-24T20:14:03.448Z,1025.49
2017-03-24T20:14:44.107Z,1025.46
2017-03-24T20:15:24.751Z,1025.48
2017-03-24T20:16:05.407Z,1025.51
2017-03-24T20:16:45.976Z,1025.56
2017-03-24T20:17:26.607Z,1025.56
2017-03-24T20:18:07.265Z,1025.55
2017-03-24T20:18:47.835Z,1025.55
2017-03-24T20:19:28.503Z,1025.59
2017-03-24T20:20:09.128Z,1025.6
2017-03-24T20:20:49.709Z,1025.6
2017-03-24T20:21:30.357Z,1025.6
2017-03-24T20:22:10.977Z,1025.62
2017-03-24T20:22:51.556Z,1025.63
2017-03-24T20:23:32.177Z,1025.61
2017-03-24T20:24:12.760Z,1025.62
2017-03-24T20:24:53.336Z,1025.61
2017-03-24T20:25:33.928Z,1025.61
2017-03-24T20:26:15.617Z,1025.59
2017-03-24T20:26:56.182Z,1025.57
2017-03-24T20:27:36.784Z,1025.61
2017-03-24T20:28:17.370Z,1025.63
2017-03-24T20:28:58.030Z,1025.61
2017-03-24T20:29:38.611Z,1025.62
2017-03-24T20:30:19.184Z,1025.6
2017-03-24T20:30:59.777Z,1025.68
2017-03-24T20:31:40.438Z,1025.65
2017-03-24T20:32:21.011Z,1025.74
2017-03-24T20:33:01.593Z,1025.74
2017-03-24T20:33:43.206Z,1025.75
2017-03-24T20:34:23.860Z,1025.72
2017-03-24T20:35:04.428Z,1025.72
2017-03-24T20:35:45.042Z,1025.72
2017-03-24T20:36:25.719Z,1025.73
2017-03-24T20:37:06.369Z,1025.74
2017-03-24T20:37:47.486Z,1025.76
2017-03-24T20:38:28.169Z,1025.73
2017-03-24T20:39:08.740Z,1025.77
2017-03-24T20:39:49.393Z,1025.79
2017-03-24T20:40:29.970Z,1025.78
2017-03-24T20:41:10.724Z,1025.77
2017-03-24T20:41:51.351Z,1025.76
2017-03-24T20:42:31.930Z,1025.77
2017-03-24T20:43:12.555Z,1025.75
2017-03-24T20:43:53.209Z,1025.78
2017-03-24T20:44:33.793Z,1025.76
2017-03-24T20:45:14.411Z,1025.8
2017-03-24T20:45:55.069Z,1025.75
2017-03-24T20:46:35.622Z,1025.8
2017-03-24T20:47:16.237Z,1025.85
2017-03-24T20:47:56.914Z,1025.79
2017-03-24T20:48:37.578Z,1025.8
2017-03-24T20:49:18.107Z,1025.85
2017-03-24T20:49:58.730Z,1025.82
2017-03-24T20:50:40.357Z,1025.88
2017-03-24T20:51:21.010Z,1025.87
2017-03-24T20:52:01.723Z,1025.91
2017-03-24T20:52:42.316Z,1025.91
2017-03-24T20:53:22.966Z,1025.94
2017-03-24T20:54:03.625Z,1025.9
2017-03-24T20:54:45.297Z,1025.91
2017-03-24T20:55:26.976Z,1025.92
2017-03-24T20:56:07.628Z,1025.93
2017-03-24T20:56:48.284Z,1025.91
2017-03-24T20:57:29.030Z,1025.9
2017-03-24T20:58:09.690Z,1025.86
2017-03-24T20:58:50.345Z,1025.87
2017-03-24T20:59:30.998Z,1025.92
2017-03-24T21:00:11.650Z,1025.86
2017-03-24T21:00:52.225Z,1025.88
2017-03-24T21:01:32.799Z,1025.9
2017-03-24T21:02:13.409Z,1025.9
2017-03-24T21:02:54.060Z,1025.91
2017-03-24T21:03:34.631Z,1025.89
2017-03-24T21:04:15.205Z,1025.89
2017-03-24T21:04:55.797Z,1025.94
2017-03-24T21:05:36.467Z,1025.86
2017-03-24T21:06:18.137Z,1025.89
2017-03-24T21:06:59.208Z,1025.86
2017-03-24T21:07:39.862Z,1025.86
2017-03-24T21:08:21.539Z,1025.83
2017-03-24T21:09:03.213Z,1025.87
2017-03-24T21:09:44.789Z,1025.82
2017-03-24T21:10:25.437Z,1025.85
2017-03-24T21:11:06.090Z,1025.83
2017-03-24T21:11:46.781Z,1025.86
2017-03-24T21:12:27.401Z,1025.83
2017-03-24T21:13:08.063Z,1025.8
2017-03-24T21:13:48.698Z,1025.8
2017-03-24T21:14:30.278Z,1025.78
2017-03-24T21:15:10.924Z,1025.78
2017-03-24T21:15:51.585Z,1025.82
2017-03-24T21:16:32.236Z,1025.78
2017-03-24T21:17:12.885Z,1025.8
2017-03-24T21:17:53.537Z,1025.8
2017-03-24T21:18:34.191Z,1025.78
2017-03-24T21:19:14.854Z,1025.79
2017-03-24T21:19:55.520Z,1025.75
2017-03-24T21:20:36.153Z,1025.78
2017-03-24T21:21:16.801Z,1025.78
2017-03-24T21:21:57.456Z,1025.79
2017-03-24T21:22:38.109Z,1025.76
2017-03-24T21:23:18.756Z,1025.77
2017-03-24T21:23:59.421Z,1025.74
2017-03-24T21:24:40.065Z,1025.74
2017-03-24T21:25:20.722Z,1025.7
2017-03-24T21:26:01.285Z,1025.71
2017-03-24T21:26:41.976Z,1025.67
2017-03-24T21:27:22.593Z,1025.72
2017-03-24T21:28:03.232Z,1025.67
2017-03-24T21:28:43.802Z,1025.66
2017-03-24T21:29:24.396Z,1025.7
2017-03-24T21:30:04.984Z,1025.7
2017-03-24T21:30:45.638Z,1025.7
2017-03-24T21:31:26.215Z,1025.71
2017-03-24T21:32:06.893Z,1025.69
2017-03-24T21:32:47.494Z,1025.7
2017-03-24T21:33:28.145Z,1025.67
2017-03-24T21:34:08.721Z,1025.68
2017-03-24T21:34:49.400Z,1025.7
2017-03-24T21:35:29.997Z,1025.69
2017-03-24T21:36:10.661Z,1025.72
2017-03-24T21:36:51.230Z,1025.69
2017-03-24T21:37:32.835Z,1025.71
2017-03-24T21:38:13.441Z,1025.68
2017-03-24T21:38:54.088Z,1025.68
2017-03-24T21:39:34.652Z,1025.7
2017-03-24T21:40:15.237Z,1025.68
2017-03-24T21:40:55.842Z,1025.7
2017-03-24T21:41:36.506Z,1025.73
2017-03-24T21:42:17.068Z,1025.73
2017-03-24T21:42:57.718Z,1025.75
2017-03-24T21:43:38.358Z,1025.79
2017-03-24T21:44:19.007Z,1025.77
2017-03-24T21:44:59.707Z,1025.77
2017-03-24T21:45:43.990Z,1025.79
2017-03-24T21:46:24.342Z,1025.82
2017-03-24T21:47:05.529Z,1025.79
2017-03-24T21:47:46.211Z,1025.8
2017-03-24T21:48:27.239Z,1025.83
2017-03-24T21:49:08.084Z,1025.85
2017-03-24T21:49:48.656Z,1025.82
2017-03-24T21:50:29.329Z,1025.83
2017-03-24T21:51:10.041Z,1025.84
2017-03-24T21:51:51.714Z,1025.81
2017-03-24T21:52:32.295Z,1025.84
2017-03-24T21:53:12.989Z,1025.86
2017-03-24T21:53:53.690Z,1025.8
2017-03-24T21:54:34.329Z,1025.84
2017-03-24T21:55:14.897Z,1025.85
2017-03-24T21:55:56.625Z,1025.81
2017-03-24T21:56:37.317Z,1025.8
2017-03-24T21:57:17.966Z,1025.79
2017-03-24T21:57:58.541Z,1025.82
2017-03-24T21:58:39.216Z,1025.85
2017-03-24T21:59:19.932Z,1025.82
2017-03-24T22:00:00.579Z,1025.8
2017-03-24T22:00:41.158Z,1025.84
2017-03-24T22:01:21.880Z,1025.8
2017-03-24T22:02:02.536Z,1025.83
2017-03-24T22:02:43.188Z,1025.84
2017-03-24T22:03:23.844Z,1025.87
2017-03-24T22:04:04.505Z,1025.85
2017-03-24T22:04:45.151Z,1025.83
2017-03-24T22:05:25.803Z,1025.82
2017-03-24T22:06:06.383Z,1025.83
2017-03-24T22:06:47.062Z,1025.83
2017-03-24T22:07:27.777Z,1025.82
2017-03-24T22:08:08.434Z,1025.85
2017-03-24T22:08:49.123Z,1025.88
2017-03-24T22:09:29.712Z,1025.86
2017-03-24T22:10:10.376Z,1025.86
2017-03-24T22:10:51.032Z,1025.84
2017-03-24T22:11:31.606Z,1025.82
2017-03-24T22:12:12.322Z,1025.84
2017-03-24T22:12:52.987Z,1025.81
2017-03-24T22:13:33.640Z,1025.82
2017-03-24T22:14:14.223Z,1025.82
2017-03-24T22:14:54.899Z,1025.83
2017-03-24T22:15:35.634Z,1025.82
2017-03-24T22:16:16.359Z,1025.83
2017-03-24T22:16:56.935Z,1025.84
2017-03-24T22:17:37.661Z,1025.82
2017-03-24T22:18:18.313Z,1025.81
2017-03-24T22:18:58.875Z,1025.87
2017-03-24T22:19:39.521Z,1025.85
2017-03-24T22:20:20.178Z,1025.87
2017-03-24T22:21:00.752Z,1025.85
2017-03-24T22:21:41.481Z,1025.86
2017-03-24T22:22:23.156Z,1025.88
2017-03-24T22:23:04.825Z,1025.89
2017-03-24T22:23:45.480Z,1025.88
2017-03-24T22:24:26.141Z,1025.9
2017-03-24T22:25:06.750Z,1025.9
2017-03-24T22:25:47.438Z,1025.95
2017-03-24T22:26:28.093Z,1025.96
2017-03-24T22:27:08.749Z,1025.95
2017-03-24T22:27:49.399Z,1025.98
2017-03-24T22:28:30.055Z,1025.96
2017-03-24T22:29:10.713Z,1025.96
2017-03-24T22:29:51.362Z,1025.97
2017-03-24T22:30:32.016Z,1025.97
2017-03-24T22:31:13.702Z,1025.96
2017-03-24T22:31:54.464Z,1025.99
2017-03-24T22:32:35.094Z,1025.99
2017-03-24T22:33:15.746Z,1026.03
2017-03-24T22:33:56.408Z,1026.07
2017-03-24T22:34:37.060Z,1026.09
2017-03-24T22:35:17.764Z,1026.14
2017-03-24T22:35:58.474Z,1026.12
2017-03-24T22:36:39.108Z,1026.16
2017-03-24T22:37:19.769Z,1026.14
2017-03-24T22:38:00.449Z,1026.14
2017-03-24T22:38:41.121Z,1026.1
2017-03-24T22:39:21.733Z,1026.11
2017-03-24T22:40:02.379Z,1026.04
2017-03-24T22:40:43.035Z,1026.1
2017-03-24T22:41:23.689Z,1026.05
2017-03-24T22:42:04.344Z,1026.02
2017-03-24T22:42:44.994Z,1026.04
2017-03-24T22:43:25.648Z,1026.02
2017-03-24T22:44:06.291Z,1026.02
2017-03-24T22:44:46.948Z,1026.02
2017-03-24T22:45:27.601Z,1026.01
2017-03-24T22:46:08.277Z,1026.03
2017-03-24T22:46:48.873Z,1026.01
2017-03-24T22:47:29.528Z,1025.97
2017-03-24T22:48:10.195Z,1026.03
2017-03-24T22:48:50.870Z,1026.02
2017-03-24T22:49:31.471Z,1026.04
2017-03-24T22:50:12.043Z,1026.05
2017-03-24T22:50:52.797Z,1026.06
2017-03-24T22:51:33.373Z,1026.06
2017-03-24T22:52:15.058Z,1026.08
2017-03-24T22:52:56.734Z,1026.01
2017-03-24T22:53:37.386Z,1026.04
2017-03-24T22:54:18.038Z,1026.02
2017-03-24T22:54:58.690Z,1025.99
2017-03-24T22:55:39.346Z,1026
2017-03-24T22:56:19.921Z,1026
2017-03-24T22:57:00.498Z,1025.98
2017-03-24T22:57:41.105Z,1026
2017-03-24T22:58:21.757Z,1025.99
2017-03-24T22:59:02.320Z,1025.99
2017-03-24T22:59:42.908Z,1026.01
2017-03-24T23:00:23.509Z,1026
2017-03-24T23:01:04.161Z,1026.03
2017-03-24T23:01:44.814Z,1025.98
2017-03-24T23:02:25.464Z,1025.97
2017-03-24T23:03:06.116Z,1025.98
2017-03-24T23:03:46.772Z,1025.99
2017-03-24T23:04:27.426Z,1026.01
2017-03-24T23:05:08.076Z,1026.04
2017-03-24T23:05:48.732Z,1026.03
2017-03-24T23:06:29.306Z,1026.02
2017-03-24T23:07:09.890Z,1026.05
2017-03-24T23:07:50.492Z,1026.06
2017-03-24T23:08:31.139Z,1026.11
2017-03-24T23:09:11.789Z,1026.15
2017-03-24T23:09:52.392Z,1026.11
2017-03-24T23:10:34.021Z,1026.12
2017-03-24T23:11:14.669Z,1026.09
2017-03-24T23:11:56.354Z,1026.11
2017-03-24T23:12:37.007Z,1026.1
2017-03-24T23:13:17.653Z,1026.11
2017-03-24T23:13:58.309Z,1026.09
2017-03-24T23:14:38.961Z,1026.13
2017-03-24T23:15:19.613Z,1026.14
2017-03-24T23:16:00.176Z,1026.16
2017-03-24T23:16:40.764Z,1026.17
2017-03-24T23:17:21.380Z,1026.18
2017-03-24T23:18:02.031Z,1026.14
2017-03-24T23:18:42.624Z,1026.1
2017-03-24T23:19:23.275Z,1026.11
2017-03-24T23:20:03.873Z,1026.11
2017-03-24T23:20:44.532Z,1026.09
2017-03-24T23:21:25.101Z,1026.1
2017-03-24T23:22:05.782Z,1026.09
2017-03-24T23:22:46.385Z,1026.07
2017-03-24T23:23:27.032Z,1026.08
2017-03-24T23:24:07.625Z,1026.06
2017-03-24T23:24:48.289Z,1026.09
2017-03-24T23:25:28.911Z,1026.09
2017-03-24T23:26:09.548Z,1026.08
2017-03-24T23:26:50.193Z,1026.07
2017-03-24T23:27:30.855Z,1026.11
2017-03-24T23:28:11.513Z,1026.09
2017-03-24T23:28:53.185Z,1026.12
2017-03-24T23:29:33.836Z,1026.07
2017-03-24T23:30:15.511Z,1026.1
2017-03-24T23:30:56.173Z,1026.14
2017-03-24T23:31:36.751Z,1026.11
2017-03-24T23:32:17.428Z,1026.13
2017-03-24T23:32:58.019Z,1026.17
2017-03-24T23:33:38.676Z,1026.15
2017-03-24T23:34:19.260Z,1026.11
2017-03-24T23:34:59.940Z,1026.08
2017-03-24T23:35:40.532Z,1026.06
2017-03-24T23:36:22.212Z,1026.08
2017-03-24T23:37:02.843Z,1026.07
2017-03-24T23:37:43.472Z,1026.05
2017-03-24T23:38:24.094Z,1026.04
2017-03-24T23:39:04.719Z,1026.03
2017-03-24T23:39:45.270Z,1026.01
2017-03-24T23:40:25.886Z,1025.98
2017-03-24T23:41:06.474Z,1025.99
2017-03-24T23:41:48.149Z,1026.01
2017-03-24T23:42:28.717Z,1026.03
2017-03-24T23:43:10.382Z,1026.01
2017-03-24T23:43:51.031Z,1026.02
2017-03-24T23:44:31.602Z,1026.02
2017-03-24T23:45:12.250Z,1026.06
2017-03-24T23:45:52.887Z,1026.03
2017-03-24T23:46:33.453Z,1026.08
2017-03-24T23:47:14.085Z,1026.05
2017-03-24T23:47:54.742Z,1026.08
2017-03-24T23:48:35.397Z,1026.07
2017-03-24T23:49:15.960Z,1026.08
2017-03-24T23:49:56.564Z,1026.05
2017-03-24T23:50:37.253Z,1026.05
2017-03-24T23:51:17.918Z,1026.08
2017-03-24T23:51:58.498Z,1026.07
2017-03-24T23:52:39.179Z,1026.04
2017-03-24T23:53:19.762Z,1026.02
2017-03-24T23:54:01.515Z,1026.04
2017-03-24T23:54:42.080Z,1026.08
2017-03-24T23:55:22.648Z,1026.07
2017-03-24T23:56:03.297Z,1026.06
2017-03-24T23:56:43.943Z,1026.06
2017-03-24T23:57:24.521Z,1026.09
2017-03-24T23:58:05.123Z,1026.09
2017-03-24T23:58:45.704Z,1026.12
2017-03-24T23:59:26.359Z,1026.09
